Time;durP1;ratioP1;P1;durP2;ratioP2;P2;SDS_P1;SDS_P2;PMS_P1;PMS_P2;Temp;Humidity;BMP_temperature;BMP_pressure;BME280_temperature;BME280_humidity;BME280_pressure;Samples;Min_cycle;Max_cycle;Signal;HPM_P1;HPM_P2
2023/03/14 00:00:35;;;;;;;23.58;17.85;;;10.40;66.30;;;;;;5056542;28;20375;-67
2023/03/14 00:03:01;;;;;;;27.75;19.23;;;10.40;65.80;;;;;;5055943;28;20023;-64
2023/03/14 00:05:27;;;;;;;44.78;30.13;;;10.50;65.80;;;;;;5055987;28;20025;-64
2023/03/14 00:07:53;;;;;;;44.30;30.20;;;10.50;66.50;;;;;;5056261;28;20067;-63
2023/03/14 00:10:19;;;;;;;30.15;22.42;;;10.50;67.10;;;;;;5055862;28;20472;-60
2023/03/14 00:12:44;;;;;;;32.42;22.70;;;10.40;66.20;;;;;;5055741;28;20033;-60
2023/03/14 00:15:11;;;;;;;25.45;18.98;;;10.40;66.40;;;;;;5055880;28;20027;-66
2023/03/14 00:17:37;;;;;;;25.85;19.40;;;10.40;66.10;;;;;;5056052;28;20052;-63
2023/03/14 00:20:08;;;;;;;30.55;21.58;;;10.40;66.00;;;;;;5054949;28;20025;-65
2023/03/14 00:22:38;;;;;;;27.85;18.73;;;10.40;65.90;;;;;;5055790;28;20036;-63
2023/03/14 00:25:06;;;;;;;27.88;18.90;;;10.30;66.50;;;;;;5055589;28;20017;-62
2023/03/14 00:27:32;;;;;;;26.58;17.85;;;10.30;66.40;;;;;;5055466;28;20056;-62
2023/03/14 00:29:58;;;;;;;26.77;19.17;;;10.20;66.30;;;;;;5055835;28;20104;-62
2023/03/14 00:32:23;;;;;;;26.83;19.25;;;10.30;66.20;;;;;;5055531;28;20182;-63
2023/03/14 00:34:49;;;;;;;27.73;17.95;;;10.30;66.10;;;;;;5055321;28;20029;-67
2023/03/14 00:37:15;;;;;;;23.95;16.95;;;10.30;66.20;;;;;;5055952;28;20029;-62
2023/03/14 00:39:41;;;;;;;24.48;17.65;;;10.30;66.90;;;;;;5055687;28;20032;-60
2023/03/14 00:42:07;;;;;;;23.80;16.38;;;10.30;66.20;;;;;;5055095;28;20040;-65
2023/03/14 00:44:32;;;;;;;24.67;16.17;;;10.30;66.30;;;;;;5055392;28;20017;-62
2023/03/14 00:46:58;;;;;;;30.02;19.15;;;10.30;65.90;;;;;;5055180;28;20422;-65
2023/03/14 00:49:24;;;;;;;27.95;17.80;;;10.30;65.90;;;;;;5055096;28;20025;-63
2023/03/14 00:51:51;;;;;;;24.92;16.85;;;10.30;66.80;;;;;;5055199;28;20067;-57
2023/03/14 00:54:17;;;;;;;23.75;17.38;;;10.30;66.70;;;;;;5054912;28;20025;-65
2023/03/14 00:56:43;;;;;;;24.75;17.73;;;10.30;66.20;;;;;;5054910;28;20128;-59
2023/03/14 00:59:08;;;;;;;32.08;22.50;;;10.30;66.30;;;;;;5055007;28;20096;-67
2023/03/14 01:01:34;;;;;;;34.40;25.35;;;10.30;66.30;;;;;;5055036;28;20063;-61
2023/03/14 01:04:00;;;;;;;33.25;24.42;;;10.10;66.70;;;;;;5054955;28;20024;-59
2023/03/14 01:06:28;;;;;;;30.63;23.75;;;10.20;66.90;;;;;;5054845;28;20028;-64
2023/03/14 01:08:55;;;;;;;30.25;22.00;;;10.20;67.10;;;;;;5054832;28;20432;-65
2023/03/14 01:11:25;;;;;;;28.50;20.63;;;10.20;66.80;;;;;;5054634;28;20013;-61
2023/03/14 01:13:52;;;;;;;23.52;17.90;;;10.20;67.00;;;;;;5054782;28;20047;-60
2023/03/14 01:16:19;;;;;;;23.40;17.98;;;10.20;67.10;;;;;;5054907;28;20033;-68
2023/03/14 01:18:45;;;;;;;21.92;16.88;;;10.20;67.00;;;;;;5054634;28;20360;-62
2023/03/14 01:21:13;;;;;;;25.75;18.58;;;10.20;68.00;;;;;;5054596;28;20490;-64
2023/03/14 01:23:39;;;;;;;21.15;15.05;;;10.20;67.20;;;;;;5054775;28;20028;-65
2023/03/14 01:26:07;;;;;;;17.02;13.07;;;10.10;67.40;;;;;;5054333;28;20021;-64
2023/03/14 01:28:33;;;;;;;19.20;13.60;;;10.10;67.30;;;;;;5054672;28;20040;-62
2023/03/14 01:31:06;;;;;;;17.25;12.73;;;10.10;67.40;;;;;;5054465;28;20021;-65
2023/03/14 01:33:33;;;;;;;19.27;15.20;;;10.10;67.50;;;;;;5054589;28;20028;-64
2023/03/14 01:35:58;;;;;;;15.15;12.20;;;10.00;67.20;;;;;;5054383;28;20045;-59
2023/03/14 01:38:24;;;;;;;17.50;12.27;;;10.00;67.90;;;;;;5054335;28;20439;-62
2023/03/14 01:40:50;;;;;;;15.65;11.80;;;10.00;67.70;;;;;;5054232;28;20096;-64
2023/03/14 01:43:18;;;;;;;14.43;11.52;;;10.00;67.10;;;;;;5054113;28;20021;-62
2023/03/14 01:46:02;;;;;;;15.20;10.32;;;10.00;67.30;;;;;;5054402;28;20034;-68
2023/03/14 01:48:34;;;;;;;14.25;10.15;;;10.10;67.60;;;;;;5054020;28;20082;-60
2023/03/14 01:51:01;;;;;;;12.18;9.27;;;10.10;67.80;;;;;;5054061;28;20120;-60
2023/03/14 01:53:29;;;;;;;10.25;8.70;;;10.10;67.40;;;;;;5053890;28;20021;-66
2023/03/14 01:55:58;;;;;;;14.27;9.98;;;10.10;67.00;;;;;;5053909;28;20434;-60
2023/03/14 01:58:27;;;;;;;16.80;11.82;;;10.10;66.90;;;;;;5053869;28;20029;-57
2023/03/14 02:00:54;;;;;;;17.13;12.63;;;10.00;66.90;;;;;;5053738;28;20053;-60
2023/03/14 02:03:23;;;;;;;17.45;12.00;;;9.90;67.20;;;;;;5053953;28;20013;-59
2023/03/14 02:05:50;;;;;;;13.75;10.30;;;9.90;67.80;;;;;;5053828;28;20013;-63
2023/03/14 02:08:19;;;;;;;14.10;11.05;;;9.90;67.60;;;;;;5053501;28;20104;-62
2023/03/14 02:10:47;;;;;;;17.23;13.02;;;9.90;67.90;;;;;;5053868;28;20098;-62
2023/03/14 02:13:16;;;;;;;16.67;12.43;;;9.80;67.70;;;;;;5053664;28;20494;-65
2023/03/14 02:15:42;;;;;;;17.48;12.48;;;9.80;68.20;;;;;;5053585;28;20044;-60
2023/03/14 02:18:08;;;;;;;16.55;11.32;;;9.80;68.50;;;;;;5053630;28;20057;-64
2023/03/14 02:20:49;;;;;;;19.42;12.65;;;9.80;69.20;;;;;;5053778;28;20028;-62
2023/03/14 02:23:24;;;;;;;16.45;11.55;;;9.70;68.60;;;;;;5053534;28;20017;-64
2023/03/14 02:26:04;;;;;;;17.35;12.77;;;9.60;68.60;;;;;;5053787;28;20028;-58
2023/03/14 02:28:29;;;;;;;18.23;13.85;;;9.60;69.10;;;;;;5053367;28;20110;-64
2023/03/14 02:30:55;;;;;;;16.52;11.25;;;9.50;69.70;;;;;;5053644;28;20106;-63
2023/03/14 02:33:22;;;;;;;14.00;10.65;;;9.50;69.40;;;;;;5053374;28;20467;-60
2023/03/14 02:36:01;;;;;;;13.30;9.68;;;9.50;68.90;;;;;;5053041;28;20048;-66
2023/03/14 02:38:35;;;;;;;12.73;9.45;;;9.60;69.10;;;;;;5053426;28;20039;-62
2023/03/14 02:41:01;;;;;;;11.52;9.00;;;9.60;69.00;;;;;;5053461;28;20108;-63
2023/03/14 02:43:27;;;;;;;10.52;8.30;;;9.60;68.60;;;;;;5052832;28;20449;-64
2023/03/14 02:45:53;;;;;;;8.88;7.00;;;9.70;68.70;;;;;;5053524;28;20031;-60
2023/03/14 02:48:24;;;;;;;9.35;7.15;;;9.70;69.10;;;;;;5053404;28;20028;-61
2023/03/14 02:50:54;;;;;;;9.02;7.00;;;9.70;68.70;;;;;;5053218;28;20063;-63
2023/03/14 02:53:25;;;;;;;10.48;7.88;;;9.70;69.20;;;;;;5053498;28;20465;-62
2023/03/14 02:55:51;;;;;;;8.32;6.75;;;9.70;68.60;;;;;;5053360;28;20021;-62
2023/03/14 02:58:17;;;;;;;8.40;5.93;;;9.60;68.60;;;;;;5053136;28;20155;-60
2023/03/14 03:00:43;;;;;;;7.93;6.13;;;9.60;67.80;;;;;;5053068;28;20032;-63
2023/03/14 03:03:09;;;;;;;8.38;6.75;;;9.70;67.90;;;;;;5052933;28;20053;-64
2023/03/14 03:05:35;;;;;;;8.73;6.55;;;9.70;68.00;;;;;;5052845;28;20033;-67
2023/03/14 03:08:00;;;;;;;8.98;6.20;;;9.70;68.40;;;;;;5053134;28;20033;-65
2023/03/14 03:10:27;;;;;;;6.72;5.35;;;9.80;68.60;;;;;;5052841;28;20017;-66
2023/03/14 03:12:53;;;;;;;7.25;5.47;;;9.80;68.80;;;;;;5053087;28;20023;-64
2023/03/14 03:15:19;;;;;;;7.88;5.45;;;9.80;68.90;;;;;;5052959;28;20107;-62
2023/03/14 03:17:45;;;;;;;8.50;6.10;;;9.90;69.70;;;;;;5052837;28;20096;-63
2023/03/14 03:20:12;;;;;;;6.78;5.82;;;9.80;69.80;;;;;;5052958;28;20364;-62
2023/03/14 03:22:38;;;;;;;8.05;6.43;;;9.80;68.90;;;;;;5053138;28;20379;-61
2023/03/14 03:25:05;;;;;;;8.18;5.90;;;9.90;69.40;;;;;;5052838;28;20031;-61
2023/03/14 03:27:32;;;;;;;7.57;5.70;;;9.90;69.60;;;;;;5052833;28;20040;-62
2023/03/14 03:29:58;;;;;;;7.38;5.45;;;9.90;69.50;;;;;;5052819;28;20087;-58
2023/03/14 03:32:24;;;;;;;7.47;6.10;;;9.90;68.80;;;;;;5052799;28;20039;-62
2023/03/14 03:34:50;;;;;;;8.50;6.22;;;9.90;69.30;;;;;;5052730;28;20041;-67
2023/03/14 03:37:15;;;;;;;7.32;5.55;;;9.90;68.70;;;;;;5052724;28;20447;-65
2023/03/14 03:39:41;;;;;;;11.20;6.88;;;10.00;68.70;;;;;;5053003;28;20078;-64
2023/03/14 03:42:07;;;;;;;7.32;5.78;;;10.00;68.50;;;;;;5052596;28;20032;-65
2023/03/14 03:44:33;;;;;;;8.43;5.63;;;10.00;68.70;;;;;;5052909;28;20025;-62
2023/03/14 03:46:58;;;;;;;6.05;4.93;;;10.00;68.70;;;;;;5052670;28;20040;-64
2023/03/14 03:49:28;;;;;;;7.10;5.65;;;10.00;68.30;;;;;;5052356;28;20029;-61
2023/03/14 03:51:53;;;;;;;8.05;6.13;;;10.00;68.30;;;;;;5052709;28;20025;-61
2023/03/14 03:54:19;;;;;;;8.90;6.60;;;10.00;68.60;;;;;;5052666;28;20105;-62
2023/03/14 03:56:44;;;;;;;7.28;5.82;;;9.90;68.30;;;;;;5054864;28;20029;-63
2023/03/14 03:59:10;;;;;;;6.35;5.43;;;9.90;69.20;;;;;;5056278;28;20025;-56
2023/03/14 04:01:36;;;;;;;6.80;5.47;;;9.90;68.30;;;;;;5056227;28;20490;-61
2023/03/14 04:04:01;;;;;;;8.27;5.78;;;9.90;68.20;;;;;;5055830;28;20028;-61
2023/03/14 04:06:27;;;;;;;6.45;5.75;;;10.00;68.40;;;;;;5056075;28;20410;-61
2023/03/14 04:08:54;;;;;;;7.43;6.05;;;9.90;67.90;;;;;;5056122;28;20028;-62
2023/03/14 04:11:20;;;;;;;8.45;6.72;;;9.80;68.20;;;;;;5056089;28;20025;-63
2023/03/14 04:13:45;;;;;;;7.05;6.35;;;9.80;68.30;;;;;;5055860;28;20028;-64
2023/03/14 04:16:23;;;;;;;8.95;6.57;;;9.80;69.10;;;;;;5055907;28;20017;-61
2023/03/14 04:18:49;;;;;;;7.72;6.78;;;9.80;68.80;;;;;;5055563;28;20028;-59
2023/03/14 04:21:15;;;;;;;8.10;6.47;;;9.80;69.70;;;;;;5055838;28;20025;-62
2023/03/14 04:23:40;;;;;;;8.05;6.80;;;9.70;68.90;;;;;;5056039;28;20032;-61
2023/03/14 04:26:06;;;;;;;7.10;5.63;;;9.70;68.50;;;;;;5055557;28;20376;-56
2023/03/14 04:28:32;;;;;;;7.30;6.10;;;9.60;68.70;;;;;;5055635;28;20029;-61
2023/03/14 04:30:58;;;;;;;6.88;5.78;;;9.70;69.20;;;;;;5055548;28;20060;-62
2023/03/14 04:33:24;;;;;;;7.95;6.18;;;9.70;69.10;;;;;;5055364;28;20053;-61
2023/03/14 04:35:54;;;;;;;7.05;5.65;;;9.70;69.50;;;;;;5055213;28;20081;-64
2023/03/14 04:38:20;;;;;;;7.32;5.60;;;9.70;69.60;;;;;;5055432;28;20451;-66
2023/03/14 04:40:45;;;;;;;6.38;5.43;;;9.70;69.30;;;;;;5055697;28;20104;-62
2023/03/14 04:43:12;;;;;;;7.03;5.57;;;9.70;69.40;;;;;;5055277;28;20018;-63
2023/03/14 04:45:41;;;;;;;8.20;6.47;;;9.70;69.40;;;;;;5055388;28;20066;-66
2023/03/14 04:48:06;;;;;;;7.70;5.93;;;9.70;69.70;;;;;;5055156;28;20039;-61
2023/03/14 04:50:32;;;;;;;6.38;5.75;;;9.60;69.70;;;;;;5055095;28;20542;-62
2023/03/14 04:52:58;;;;;;;8.75;6.88;;;9.60;69.50;;;;;;5055170;28;20357;-61
2023/03/14 04:55:24;;;;;;;11.20;9.60;;;9.60;70.00;;;;;;5055124;28;20017;-62
2023/03/14 04:57:49;;;;;;;9.75;7.97;;;9.60;70.10;;;;;;5055007;28;20025;-59
2023/03/14 05:00:18;;;;;;;10.90;9.02;;;9.40;70.50;;;;;;5054987;28;20070;-62
2023/03/14 05:02:44;;;;;;;8.90;7.70;;;9.40;70.70;;;;;;5055069;28;20042;-59
2023/03/14 05:05:10;;;;;;;13.25;10.43;;;9.30;70.90;;;;;;5054944;28;20032;-65
2023/03/14 05:07:36;;;;;;;11.13;8.50;;;9.30;71.50;;;;;;5054470;28;20064;-65
2023/03/14 05:10:02;;;;;;;11.35;8.63;;;9.30;70.80;;;;;;5055011;28;20167;-65
2023/03/14 05:12:28;;;;;;;12.77;10.23;;;9.40;70.40;;;;;;5054724;28;20498;-64
2023/03/14 05:14:53;;;;;;;17.60;14.85;;;9.40;71.00;;;;;;5054893;28;20128;-62
2023/03/14 05:17:19;;;;;;;12.95;10.40;;;9.40;71.10;;;;;;5054617;28;20044;-61
2023/03/14 05:19:45;;;;;;;10.57;8.75;;;9.40;71.20;;;;;;5054697;28;20039;-63
2023/03/14 05:22:11;;;;;;;9.80;8.52;;;9.40;71.10;;;;;;5054542;28;20025;-63
2023/03/14 05:24:37;;;;;;;10.07;7.63;;;9.50;71.70;;;;;;5054623;28;20020;-63
2023/03/14 05:27:03;;;;;;;10.15;8.25;;;9.60;71.40;;;;;;5054494;28;20402;-60
2023/03/14 05:29:29;;;;;;;10.00;7.78;;;9.60;70.90;;;;;;5054670;28;20025;-62
2023/03/14 05:31:55;;;;;;;8.80;7.43;;;9.50;71.50;;;;;;5054209;28;20387;-64
2023/03/14 05:34:21;;;;;;;9.95;8.10;;;9.60;71.80;;;;;;5054173;28;20025;-63
2023/03/14 05:36:46;;;;;;;10.18;8.70;;;9.60;71.70;;;;;;5054186;28;20021;-62
2023/03/14 05:39:12;;;;;;;14.35;10.73;;;9.60;71.60;;;;;;5054378;28;20021;-63
2023/03/14 05:41:38;;;;;;;12.98;10.30;;;9.70;72.20;;;;;;5054509;28;20348;-61
2023/03/14 05:44:04;;;;;;;9.95;8.43;;;9.70;72.20;;;;;;5054381;28;20032;-60
2023/03/14 05:46:30;;;;;;;11.20;9.57;;;9.70;72.00;;;;;;5053903;28;20101;-59
2023/03/14 05:48:59;;;;;;;12.93;9.82;;;9.80;72.00;;;;;;5054110;28;20025;-66
2023/03/14 05:51:25;;;;;;;10.70;7.88;;;9.80;72.30;;;;;;5053946;28;20120;-66
2023/03/14 05:53:51;;;;;;;9.13;8.15;;;9.90;72.20;;;;;;5053979;28;20103;-64
2023/03/14 05:56:17;;;;;;;11.13;8.57;;;9.90;71.80;;;;;;5053953;28;20064;-57
2023/03/14 05:58:43;;;;;;;12.38;8.93;;;10.00;71.90;;;;;;5053846;28;20136;-59
2023/03/14 06:01:09;;;;;;;9.77;7.97;;;10.00;71.10;;;;;;5053665;28;20033;-59
2023/03/14 06:03:35;;;;;;;10.35;8.85;;;10.10;71.10;;;;;;5053966;28;20025;-65
2023/03/14 06:06:00;;;;;;;11.65;9.07;;;10.20;70.60;;;;;;5053786;28;20387;-64
2023/03/14 06:08:26;;;;;;;9.93;7.90;;;10.30;70.60;;;;;;5053361;28;20028;-62
2023/03/14 06:10:52;;;;;;;10.10;8.02;;;10.40;70.80;;;;;;5053184;28;20110;-61
2023/03/14 06:13:18;;;;;;;12.98;10.10;;;10.50;70.80;;;;;;5053793;28;20376;-62
2023/03/14 06:15:44;;;;;;;15.77;11.20;;;10.60;72.00;;;;;;5053335;28;20017;-60
2023/03/14 06:18:10;;;;;;;12.25;10.50;;;10.50;71.60;;;;;;5051907;28;20510;-66
2023/03/14 06:20:38;;;;;;;15.77;11.90;;;10.60;71.10;;;;;;5051406;28;20024;-65
2023/03/14 06:23:08;;;;;;;16.23;12.05;;;10.60;70.70;;;;;;5052369;28;20061;-60
2023/03/14 06:25:34;;;;;;;12.82;10.52;;;10.70;71.50;;;;;;5053275;28;20079;-64
2023/03/14 06:28:01;;;;;;;15.50;11.80;;;10.70;70.90;;;;;;5052996;28;20108;-59
2023/03/14 06:30:27;;;;;;;16.08;13.18;;;10.90;70.70;;;;;;5053161;28;20025;-60
2023/03/14 06:32:53;;;;;;;17.83;14.55;;;10.90;70.50;;;;;;5052008;28;20493;-61
2023/03/14 06:35:18;;;;;;;23.45;14.85;;;11.00;71.00;;;;;;5051955;28;20052;-64
2023/03/14 06:37:44;;;;;;;21.88;15.45;;;11.10;69.90;;;;;;5052193;28;20036;-63
2023/03/14 06:40:17;;;;;;;20.95;15.52;;;11.10;70.10;;;;;;5053145;28;20041;-61
2023/03/14 06:42:46;;;;;;;18.95;14.45;;;11.20;70.50;;;;;;5052000;28;20029;-58
2023/03/14 06:45:12;;;;;;;21.98;15.15;;;11.30;70.80;;;;;;5053357;28;20079;-62
2023/03/14 06:47:38;;;;;;;19.80;14.63;;;11.50;69.90;;;;;;5052520;28;20079;-61
2023/03/14 06:50:08;;;;;;;20.23;14.43;;;11.60;70.40;;;;;;5053014;28;20029;-62
2023/03/14 06:52:34;;;;;;;15.43;12.40;;;11.80;69.60;;;;;;5051155;28;20402;-63
2023/03/14 06:55:00;;;;;;;21.23;12.88;;;11.90;69.10;;;;;;5053086;28;20051;-62
2023/03/14 06:57:26;;;;;;;14.98;12.07;;;12.10;68.00;;;;;;5052376;28;20021;-62
2023/03/14 06:59:52;;;;;;;17.10;12.70;;;12.20;67.10;;;;;;5052975;28;20464;-55
2023/03/14 07:02:17;;;;;;;18.40;14.10;;;12.30;66.80;;;;;;5053057;28;20017;-62
2023/03/14 07:04:43;;;;;;;15.00;12.32;;;12.40;66.10;;;;;;5052849;28;20471;-64
2023/03/14 07:07:09;;;;;;;14.90;12.27;;;12.50;67.30;;;;;;5052725;28;20033;-64
2023/03/14 07:09:35;;;;;;;17.50;14.45;;;12.60;66.90;;;;;;5052693;28;20032;-61
2023/03/14 07:12:03;;;;;;;15.43;13.73;;;12.80;67.80;;;;;;5047629;28;20151;-61
2023/03/14 07:14:29;;;;;;;18.73;14.75;;;12.90;66.80;;;;;;5029441;28;20495;-58
2023/03/14 07:16:54;;;;;;;25.00;19.52;;;13.20;65.60;;;;;;5030881;28;20030;-61
2023/03/14 07:19:20;;;;;;;20.05;16.35;;;13.30;64.40;;;;;;5031223;28;20399;-58
2023/03/14 07:21:46;;;;;;;18.15;15.68;;;13.40;64.00;;;;;;5034974;28;20025;-67
2023/03/14 07:24:12;;;;;;;20.58;17.40;;;13.60;65.50;;;;;;5033698;28;20029;-57
2023/03/14 07:26:38;;;;;;;22.38;17.35;;;14.00;64.00;;;;;;5051530;28;20025;-66
2023/03/14 07:29:04;;;;;;;20.75;17.20;;;14.70;63.20;;;;;;5050772;28;20047;-61
2023/03/14 07:31:30;;;;;;;21.63;17.58;;;15.30;62.80;;;;;;5055932;28;20021;-62
2023/03/14 07:33:55;;;;;;;23.17;17.58;;;15.70;61.40;;;;;;5054631;28;20056;-57
2023/03/14 07:36:21;;;;;;;22.70;20.05;;;16.00;60.20;;;;;;5055918;28;20096;-65
2023/03/14 07:38:47;;;;;;;23.27;20.50;;;16.40;58.80;;;;;;5054187;28;20032;-64
2023/03/14 07:41:14;;;;;;;23.70;19.52;;;17.00;57.00;;;;;;5056611;28;20040;-61
2023/03/14 07:43:39;;;;;;;25.55;21.48;;;17.40;56.30;;;;;;5056420;28;20052;-58
2023/03/14 07:46:06;;;;;;;23.60;20.52;;;18.10;55.50;;;;;;5055547;28;20051;-64
2023/03/14 07:48:32;;;;;;;24.15;21.17;;;18.30;55.00;;;;;;5055021;28;20551;-62
2023/03/14 07:50:58;;;;;;;23.52;20.33;;;18.00;53.00;;;;;;5054723;28;20104;-60
2023/03/14 07:53:25;;;;;;;21.20;18.88;;;17.70;52.90;;;;;;5054290;28;20135;-61
2023/03/14 07:55:52;;;;;;;21.17;18.90;;;17.70;53.80;;;;;;5056022;28;20025;-67
2023/03/14 07:58:18;;;;;;;20.30;18.20;;;17.80;54.10;;;;;;5049514;28;20101;-66
2023/03/14 08:00:44;;;;;;;19.35;17.25;;;17.90;49.80;;;;;;5044688;28;20068;-73
2023/03/14 08:03:14;;;;;;;20.63;18.42;;;17.80;50.70;;;;;;5036221;28;20513;-63
2023/03/14 08:05:41;;;;;;;21.52;18.48;;;17.70;48.70;;;;;;5034177;28;20064;-67
2023/03/14 08:08:07;;;;;;;25.55;17.90;;;17.60;50.00;;;;;;5036013;28;20498;-69
2023/03/14 08:10:33;;;;;;;18.38;14.40;;;17.50;47.20;;;;;;5034517;28;20030;-66
2023/03/14 08:13:00;;;;;;;15.57;13.45;;;17.40;45.50;;;;;;5039274;28;20025;-64
2023/03/14 08:15:28;;;;;;;15.13;12.82;;;17.50;45.70;;;;;;5035931;28;20495;-70
2023/03/14 08:17:54;;;;;;;13.77;12.35;;;17.80;43.80;;;;;;5035400;28;20104;-63
2023/03/14 08:20:23;;;;;;;16.15;13.68;;;18.20;44.50;;;;;;5036331;28;20056;-64
2023/03/14 08:22:48;;;;;;;20.45;16.13;;;18.60;44.60;;;;;;5035795;28;20434;-66
2023/03/14 08:25:15;;;;;;;19.88;15.55;;;19.50;43.00;;;;;;5034880;28;20021;-62
2023/03/14 08:27:41;;;;;;;19.60;16.42;;;21.10;42.50;;;;;;5035613;28;20072;-67
2023/03/14 08:30:12;;;;;;;19.45;15.90;;;22.60;40.50;;;;;;5035767;28;20494;-68
2023/03/14 08:32:38;;;;;;;17.35;14.43;;;23.50;38.90;;;;;;5035795;28;20018;-68
2023/03/14 08:35:06;;;;;;;14.23;12.77;;;25.10;38.40;;;;;;5035393;28;20053;-65
2023/03/14 08:37:33;;;;;;;11.55;10.18;;;25.80;35.90;;;;;;5035702;28;20029;-62
2023/03/14 08:40:02;;;;;;;11.35;10.20;;;26.00;36.50;;;;;;5035400;28;20100;-69
2023/03/14 08:42:30;;;;;;;10.25;9.18;;;25.90;33.80;;;;;;5039822;28;20055;-69
2023/03/14 08:44:56;;;;;;;9.45;8.55;;;25.70;34.90;;;;;;5039179;28;20466;-69
2023/03/14 08:47:21;;;;;;;5.28;4.35;;;25.90;34.70;;;;;;5040251;28;20474;-68
2023/03/14 08:49:47;;;;;;;6.55;5.85;;;26.20;30.20;;;;;;5050157;28;20459;-66
2023/03/14 08:52:13;;;;;;;5.82;5.13;;;25.80;31.90;;;;;;5051775;28;20028;-67
2023/03/14 08:54:38;;;;;;;4.75;4.30;;;25.50;32.00;;;;;;5043787;28;20022;-70
2023/03/14 08:57:04;;;;;;;7.28;5.40;;;25.50;31.00;;;;;;5039574;28;20025;-71
2023/03/14 08:59:30;;;;;;;5.00;4.50;;;25.20;31.70;;;;;;5039066;28;20033;-72
2023/03/14 09:01:56;;;;;;;4.90;4.40;;;25.20;31.50;;;;;;5032895;28;20030;-67
2023/03/14 09:04:21;;;;;;;4.15;3.30;;;25.30;31.30;;;;;;5032405;28;20021;-61
2023/03/14 09:06:47;;;;;;;2.35;2.13;;;25.20;30.80;;;;;;5048723;28;20033;-66
2023/03/14 09:09:13;;;;;;;2.63;1.95;;;24.80;31.40;;;;;;5043192;28;20120;-69
2023/03/14 09:11:39;;;;;;;3.50;2.28;;;24.40;33.00;;;;;;5044185;28;20033;-61
2023/03/14 09:14:06;;;;;;;2.63;2.42;;;23.80;30.60;;;;;;5053571;28;20047;-70
2023/03/14 09:16:33;;;;;;;5.40;3.33;;;23.50;32.20;;;;;;5052438;28;20025;-70
2023/03/14 09:18:59;;;;;;;3.70;3.08;;;23.30;31.80;;;;;;5039996;28;20018;-63
2023/03/14 09:21:26;;;;;;;2.40;2.20;;;22.90;31.90;;;;;;5044226;28;20030;-65
2023/03/14 09:23:53;;;;;;;2.50;1.63;;;22.70;32.10;;;;;;5034140;28;20019;-67
2023/03/14 09:26:19;;;;;;;1.85;1.35;;;22.40;31.50;;;;;;5039351;28;20040;-72
2023/03/14 09:28:44;;;;;;;2.28;0.80;;;22.30;31.30;;;;;;5053209;28;20029;-67
2023/03/14 09:31:11;;;;;;;1.13;0.90;;;22.30;31.30;;;;;;5042928;28;20030;-68
2023/03/14 09:33:38;;;;;;;1.55;1.05;;;22.30;31.60;;;;;;5049127;28;20064;-69
2023/03/14 09:36:04;;;;;;;0.70;0.60;;;22.40;31.70;;;;;;5048758;28;20144;-71
2023/03/14 09:38:30;;;;;;;0.80;0.63;;;22.30;31.90;;;;;;5042464;28;20049;-65
2023/03/14 09:40:59;;;;;;;1.30;1.20;;;22.50;31.50;;;;;;5042470;28;20480;-61
2023/03/14 09:43:29;;;;;;;1.40;0.70;;;22.60;30.00;;;;;;5037569;28;20112;-67
2023/03/14 09:45:57;;;;;;;0.90;0.70;;;22.60;30.50;;;;;;5040124;28;20040;-64
2023/03/14 09:48:29;;;;;;;1.20;1.05;;;22.60;30.00;;;;;;5036368;28;20119;-63
2023/03/14 09:50:56;;;;;;;1.95;0.85;;;22.80;31.10;;;;;;5041059;28;20029;-70
2023/03/14 09:53:33;;;;;;;1.40;0.90;;;22.50;30.00;;;;;;5044827;28;20060;-71
2023/03/14 09:55:59;;;;;;;1.00;0.90;;;22.60;31.00;;;;;;5035370;28;20048;-67
2023/03/14 09:58:25;;;;;;;1.77;1.00;;;23.10;30.70;;;;;;5038581;28;20411;-67
2023/03/14 10:00:55;;;;;;;0.98;0.80;;;23.50;29.60;;;;;;5039530;28;20088;-67
2023/03/14 10:03:41;;;;;;;2.17;0.70;;;23.60;29.60;;;;;;5040902;28;20076;-66
2023/03/14 10:06:13;;;;;;;0.90;0.70;;;23.50;29.50;;;;;;5042416;28;20056;-67
2023/03/14 10:08:41;;;;;;;0.70;0.70;;;23.70;30.40;;;;;;5036146;28;20073;-64
2023/03/14 10:11:09;;;;;;;2.25;1.10;;;24.30;31.70;;;;;;5043238;28;20057;-74
2023/03/14 10:13:46;;;;;;;1.48;1.33;;;25.00;30.20;;;;;;5040616;28;20032;-67
2023/03/14 10:16:14;;;;;;;1.05;0.90;;;25.30;29.70;;;;;;5048579;28;20036;-65
2023/03/14 10:18:51;;;;;;;1.05;0.98;;;25.20;28.90;;;;;;5033364;28;20033;-68
2023/03/14 10:21:33;;;;;;;1.35;0.70;;;25.40;30.70;;;;;;5039654;28;20029;-69
2023/03/14 10:24:27;;;;;;;0.88;0.68;;;24.70;29.40;;;;;;5042755;28;20091;-71
2023/03/14 10:26:55;;;;;;;0.80;0.80;;;24.30;29.40;;;;;;5036704;28;20394;-68
2023/03/14 10:29:21;;;;;;;1.88;1.20;;;24.20;29.50;;;;;;5045753;28;20663;-71
2023/03/14 10:32:17;;;;;;;3.40;0.85;;;24.50;29.10;;;;;;5040311;28;20068;-67
2023/03/14 10:34:44;;;;;;;0.98;0.50;;;24.10;28.50;;;;;;5059605;28;20045;-68
2023/03/14 10:37:27;;;;;;;0.70;0.60;;;24.10;28.80;;;;;;5038499;28;20060;-72
2023/03/14 10:39:58;;;;;;;1.13;0.73;;;24.30;30.00;;;;;;5045290;28;20060;-66
2023/03/14 10:42:34;;;;;;;3.65;1.00;;;24.60;29.20;;;;;;5034064;28;20112;-63
2023/03/14 10:45:07;;;;;;;1.15;0.70;;;25.10;28.70;;;;;;5030535;28;20093;-63
2023/03/14 10:47:34;;;;;;;0.73;0.73;;;24.60;28.60;;;;;;5032716;28;20083;-63
2023/03/14 10:50:34;;;;;;;0.75;0.70;;;24.60;29.20;;;;;;5034547;28;20029;-64
2023/03/14 10:53:35;;;;;;;2.03;1.63;;;25.10;28.90;;;;;;5031395;28;20156;-70
2023/03/14 10:56:06;;;;;;;1.10;1.00;;;25.70;28.10;;;;;;5035126;28;20034;-64
2023/03/14 10:58:44;;;;;;;1.05;0.90;;;25.60;28.30;;;;;;5031412;28;20033;-63
2023/03/14 11:01:25;;;;;;;0.63;0.63;;;25.20;28.00;;;;;;5036739;28;20386;-65
2023/03/14 11:04:15;;;;;;;1.02;0.80;;;24.60;28.30;;;;;;5035655;28;20045;-66
2023/03/14 11:07:06;;;;;;;1.70;1.60;;;24.60;28.40;;;;;;5042400;28;20033;-67
2023/03/14 11:09:43;;;;;;;0.70;0.50;;;24.70;29.60;;;;;;5045608;28;20029;-67
2023/03/14 11:12:18;;;;;;;0.80;0.80;;;24.60;28.90;;;;;;5041160;28;20476;-62
2023/03/14 11:14:57;;;;;;;2.38;2.08;;;24.70;29.00;;;;;;5032429;28;20025;-67
2023/03/14 11:17:34;;;;;;;1.70;1.60;;;24.70;30.10;;;;;;5038312;28;20505;-67
2023/03/14 11:20:12;;;;;;;1.35;1.25;;;24.70;29.60;;;;;;5032847;28;20056;-65
2023/03/14 11:22:38;;;;;;;2.70;2.47;;;24.90;28.50;;;;;;5044797;28;20018;-70
2023/03/14 11:25:09;;;;;;;3.05;2.38;;;25.10;29.00;;;;;;5034676;28;20032;-63
2023/03/14 11:27:48;;;;;;;2.50;2.30;;;25.40;28.90;;;;;;5040613;28;20508;-71
2023/03/14 11:30:20;;;;;;;3.20;2.90;;;25.90;28.90;;;;;;5036539;28;20029;-62
2023/03/14 11:33:26;;;;;;;3.13;1.88;;;26.20;28.80;;;;;;5043749;28;20025;-68
2023/03/14 11:36:04;;;;;;;2.17;1.30;;;26.30;27.50;;;;;;5045995;28;20072;-74
2023/03/14 11:38:34;;;;;;;2.63;1.00;;;26.30;27.80;;;;;;5042681;28;20025;-65
2023/03/14 11:41:00;;;;;;;1.30;1.20;;;25.80;26.70;;;;;;5047653;28;20105;-65
2023/03/14 11:43:40;;;;;;;0.82;0.80;;;25.60;27.30;;;;;;5045108;28;20024;-69
2023/03/14 11:46:19;;;;;;;3.65;2.70;;;25.40;26.70;;;;;;5042451;28;20028;-71
2023/03/14 11:49:18;;;;;;;2.35;1.90;;;25.60;26.80;;;;;;5043114;28;20033;-70
2023/03/14 11:51:47;;;;;;;1.80;1.05;;;25.40;26.80;;;;;;5046023;28;20386;-66
2023/03/14 11:54:42;;;;;;;1.55;0.80;;;25.00;26.80;;;;;;5046250;28;20022;-71
2023/03/14 11:57:17;;;;;;;2.05;0.80;;;25.10;27.20;;;;;;5035359;28;20025;-68
2023/03/14 12:00:12;;;;;;;1.70;1.30;;;25.60;27.80;;;;;;5039308;28;20446;-73
2023/03/14 12:02:57;;;;;;;1.50;1.40;;;26.10;27.10;;;;;;5039484;28;20029;-69
2023/03/14 12:05:53;;;;;;;1.27;1.17;;;26.30;27.80;;;;;;5041469;28;20025;-69
2023/03/14 12:08:58;;;;;;;1.05;0.85;;;26.20;27.30;;;;;;5038650;28;20040;-72
2023/03/14 12:11:41;;;;;;;1.60;0.80;;;26.40;27.70;;;;;;5037061;28;20077;-71
2023/03/14 12:14:25;;;;;;;0.80;0.80;;;26.30;27.50;;;;;;5036550;28;20399;-65
2023/03/14 12:16:58;;;;;;;2.20;1.30;;;26.50;26.60;;;;;;5039829;28;20036;-68
2023/03/14 12:19:23;;;;;;;1.35;1.25;;;26.50;26.00;;;;;;5043964;28;20529;-62
2023/03/14 12:21:51;;;;;;;1.05;0.90;;;26.80;26.60;;;;;;5041325;28;20018;-60
2023/03/14 12:24:24;;;;;;;1.25;1.10;;;27.30;26.70;;;;;;5040977;28;20021;-68
2023/03/14 12:26:56;;;;;;;0.95;0.93;;;27.80;26.70;;;;;;5039998;28;20029;-63
2023/03/14 12:29:23;;;;;;;0.98;0.82;;;27.90;28.60;;;;;;5042190;28;20010;-66
2023/03/14 12:32:08;;;;;;;0.80;0.80;;;28.00;28.90;;;;;;5038837;28;20506;-70
2023/03/14 12:34:41;;;;;;;2.03;1.27;;;28.10;28.40;;;;;;5048990;28;20035;-63
2023/03/14 12:37:16;;;;;;;4.50;4.10;;;28.50;26.10;;;;;;5031983;28;20021;-70
2023/03/14 12:40:09;;;;;;;2.58;2.22;;;28.60;24.90;;;;;;5032843;28;20034;-65
2023/03/14 12:42:37;;;;;;;4.55;3.60;;;28.60;25.60;;;;;;5032509;28;20509;-63
2023/03/14 12:45:22;;;;;;;1.13;1.02;;;28.60;25.50;;;;;;5048713;28;20037;-62
2023/03/14 12:48:07;;;;;;;0.82;0.82;;;28.60;24.90;;;;;;5052992;28;20041;-61
2023/03/14 12:50:44;;;;;;;0.73;0.73;;;27.60;26.20;;;;;;5053466;28;20025;-64